sensor_id;sensor_type;location;lat;lon;timestamp;P1;durP1;ratioP1;P2;durP2;ratioP2
6638;SDS011;3355;52.882;8.430;2022-09-13T00:02:12;8.80;;;5.93;;
6638;SDS011;3355;52.882;8.430;2022-09-13T00:04:38;7.80;;;5.30;;
6638;SDS011;3355;52.882;8.430;2022-09-13T00:07:05;9.90;;;6.23;;
6638;SDS011;3355;52.882;8.430;2022-09-13T00:09:31;9.90;;;6.77;;
6638;SDS011;3355;52.882;8.430;2022-09-13T00:11:58;7.27;;;6.07;;
6638;SDS011;3355;52.882;8.430;2022-09-13T00:14:28;7.40;;;6.07;;
6638;SDS011;3355;52.882;8.430;2022-09-13T00:16:54;9.67;;;7.00;;
6638;SDS011;3355;52.882;8.430;2022-09-13T00:19:22;8.97;;;5.80;;
6638;SDS011;3355;52.882;8.430;2022-09-13T00:21:49;7.90;;;7.10;;
6638;SDS011;3355;52.882;8.430;2022-09-13T00:24:15;8.00;;;6.07;;
6638;SDS011;3355;52.882;8.430;2022-09-13T00:26:42;8.40;;;7.13;;
6638;SDS011;3355;52.882;8.430;2022-09-13T00:29:09;8.43;;;6.70;;
6638;SDS011;3355;52.882;8.430;2022-09-13T00:31:35;9.00;;;6.90;;
6638;SDS011;3355;52.882;8.430;2022-09-13T00:34:02;9.13;;;7.17;;
6638;SDS011;3355;52.882;8.430;2022-09-13T00:36:30;7.97;;;6.70;;
6638;SDS011;3355;52.882;8.430;2022-09-13T00:38:58;10.60;;;7.70;;
6638;SDS011;3355;52.882;8.430;2022-09-13T00:41:24;10.40;;;7.43;;
6638;SDS011;3355;52.882;8.430;2022-09-13T00:43:51;10.40;;;8.27;;
6638;SDS011;3355;52.882;8.430;2022-09-13T00:46:21;12.77;;;8.40;;
6638;SDS011;3355;52.882;8.430;2022-09-13T00:48:52;10.60;;;8.87;;
6638;SDS011;3355;52.882;8.430;2022-09-13T00:51:23;10.63;;;8.77;;
6638;SDS011;3355;52.882;8.430;2022-09-13T00:53:52;8.83;;;7.87;;
6638;SDS011;3355;52.882;8.430;2022-09-13T00:56:20;10.07;;;8.37;;
6638;SDS011;3355;52.882;8.430;2022-09-13T00:58:51;12.27;;;9.80;;
6638;SDS011;3355;52.882;8.430;2022-09-13T01:01:22;12.50;;;8.70;;
6638;SDS011;3355;52.882;8.430;2022-09-13T01:03:52;10.80;;;8.40;;
6638;SDS011;3355;52.882;8.430;2022-09-13T01:06:19;12.10;;;9.07;;
6638;SDS011;3355;52.882;8.430;2022-09-13T01:08:48;10.10;;;8.60;;
6638;SDS011;3355;52.882;8.430;2022-09-13T01:11:18;8.70;;;7.73;;
6638;SDS011;3355;52.882;8.430;2022-09-13T01:13:49;11.20;;;8.97;;
6638;SDS011;3355;52.882;8.430;2022-09-13T01:16:16;12.67;;;9.50;;
6638;SDS011;3355;52.882;8.430;2022-09-13T01:18:43;11.27;;;9.83;;
6638;SDS011;3355;52.882;8.430;2022-09-13T01:21:16;12.77;;;10.60;;
6638;SDS011;3355;52.882;8.430;2022-09-13T01:27:03;12.00;;;10.03;;
6638;SDS011;3355;52.882;8.430;2022-09-13T01:32:51;11.60;;;10.27;;
6638;SDS011;3355;52.882;8.430;2022-09-13T01:35:29;15.03;;;9.47;;
6638;SDS011;3355;52.882;8.430;2022-09-13T01:38:01;13.90;;;9.90;;
6638;SDS011;3355;52.882;8.430;2022-09-13T01:40:41;11.73;;;10.17;;
6638;SDS011;3355;52.882;8.430;2022-09-13T01:43:19;14.60;;;11.37;;
6638;SDS011;3355;52.882;8.430;2022-09-13T01:45:55;12.37;;;10.30;;
6638;SDS011;3355;52.882;8.430;2022-09-13T01:48:29;13.80;;;11.17;;
6638;SDS011;3355;52.882;8.430;2022-09-13T01:51:03;12.00;;;10.70;;
6638;SDS011;3355;52.882;8.430;2022-09-13T01:53:34;13.50;;;10.67;;
6638;SDS011;3355;52.882;8.430;2022-09-13T01:56:08;12.80;;;11.40;;
6638;SDS011;3355;52.882;8.430;2022-09-13T01:58:38;13.63;;;12.00;;
6638;SDS011;3355;52.882;8.430;2022-09-13T02:01:09;15.97;;;11.80;;
6638;SDS011;3355;52.882;8.430;2022-09-13T02:03:40;13.40;;;11.63;;
6638;SDS011;3355;52.882;8.430;2022-09-13T02:06:11;16.43;;;11.90;;
6638;SDS011;3355;52.882;8.430;2022-09-13T02:08:41;13.30;;;11.43;;
6638;SDS011;3355;52.882;8.430;2022-09-13T02:11:10;15.97;;;13.07;;
6638;SDS011;3355;52.882;8.430;2022-09-13T02:13:39;14.97;;;11.37;;
6638;SDS011;3355;52.882;8.430;2022-09-13T02:16:14;14.30;;;12.03;;
6638;SDS011;3355;52.882;8.430;2022-09-13T02:18:44;13.43;;;11.77;;
6638;SDS011;3355;52.882;8.430;2022-09-13T02:21:13;17.73;;;12.53;;
6638;SDS011;3355;52.882;8.430;2022-09-13T02:23:43;16.20;;;12.20;;
6638;SDS011;3355;52.882;8.430;2022-09-13T02:26:14;18.27;;;13.80;;
6638;SDS011;3355;52.882;8.430;2022-09-13T02:28:42;14.83;;;13.10;;
6638;SDS011;3355;52.882;8.430;2022-09-13T02:31:13;14.80;;;12.77;;
6638;SDS011;3355;52.882;8.430;2022-09-13T02:33:43;17.50;;;14.00;;
6638;SDS011;3355;52.882;8.430;2022-09-13T02:36:13;14.50;;;12.90;;
6638;SDS011;3355;52.882;8.430;2022-09-13T02:38:42;15.00;;;13.03;;
6638;SDS011;3355;52.882;8.430;2022-09-13T02:41:14;16.40;;;13.20;;
6638;SDS011;3355;52.882;8.430;2022-09-13T02:43:42;14.93;;;12.73;;
6638;SDS011;3355;52.882;8.430;2022-09-13T02:46:17;18.50;;;13.13;;
6638;SDS011;3355;52.882;8.430;2022-09-13T02:48:49;16.60;;;13.80;;
6638;SDS011;3355;52.882;8.430;2022-09-13T02:51:22;13.70;;;12.10;;
6638;SDS011;3355;52.882;8.430;2022-09-13T02:53:54;13.90;;;12.40;;
6638;SDS011;3355;52.882;8.430;2022-09-13T02:56:30;15.83;;;12.60;;
6638;SDS011;3355;52.882;8.430;2022-09-13T02:59:01;15.27;;;12.23;;
6638;SDS011;3355;52.882;8.430;2022-09-13T03:01:31;17.93;;;14.67;;
6638;SDS011;3355;52.882;8.430;2022-09-13T03:03:59;14.20;;;12.50;;
6638;SDS011;3355;52.882;8.430;2022-09-13T03:06:26;17.53;;;13.53;;
6638;SDS011;3355;52.882;8.430;2022-09-13T03:08:54;16.30;;;13.90;;
6638;SDS011;3355;52.882;8.430;2022-09-13T03:11:24;15.23;;;12.90;;
6638;SDS011;3355;52.882;8.430;2022-09-13T03:16:57;15.43;;;13.40;;
6638;SDS011;3355;52.882;8.430;2022-09-13T03:19:37;15.10;;;13.47;;
6638;SDS011;3355;52.882;8.430;2022-09-13T03:22:16;16.63;;;13.73;;
6638;SDS011;3355;52.882;8.430;2022-09-13T03:24:52;15.80;;;12.87;;
6638;SDS011;3355;52.882;8.430;2022-09-13T03:27:27;20.00;;;14.67;;
6638;SDS011;3355;52.882;8.430;2022-09-13T03:30:00;18.23;;;14.53;;
6638;SDS011;3355;52.882;8.430;2022-09-13T03:32:32;16.77;;;13.77;;
6638;SDS011;3355;52.882;8.430;2022-09-13T03:35:03;17.47;;;13.97;;
6638;SDS011;3355;52.882;8.430;2022-09-13T03:37:33;19.23;;;13.77;;
6638;SDS011;3355;52.882;8.430;2022-09-13T03:40:04;15.47;;;13.60;;
6638;SDS011;3355;52.882;8.430;2022-09-13T03:42:34;16.70;;;13.87;;
6638;SDS011;3355;52.882;8.430;2022-09-13T03:45:05;15.73;;;13.53;;
6638;SDS011;3355;52.882;8.430;2022-09-13T03:47:35;18.07;;;15.53;;
6638;SDS011;3355;52.882;8.430;2022-09-13T03:50:03;17.83;;;14.53;;
6638;SDS011;3355;52.882;8.430;2022-09-13T03:52:30;18.90;;;13.53;;
6638;SDS011;3355;52.882;8.430;2022-09-13T03:54:57;18.00;;;14.63;;
6638;SDS011;3355;52.882;8.430;2022-09-13T03:57:24;19.57;;;15.20;;
6638;SDS011;3355;52.882;8.430;2022-09-13T03:59:51;19.00;;;14.37;;
6638;SDS011;3355;52.882;8.430;2022-09-13T04:02:19;17.17;;;14.23;;
6638;SDS011;3355;52.882;8.430;2022-09-13T04:04:48;18.17;;;14.10;;
6638;SDS011;3355;52.882;8.430;2022-09-13T04:07:15;16.43;;;14.47;;
6638;SDS011;3355;52.882;8.430;2022-09-13T04:09:43;17.67;;;13.73;;
6638;SDS011;3355;52.882;8.430;2022-09-13T04:12:11;17.90;;;14.90;;
6638;SDS011;3355;52.882;8.430;2022-09-13T04:14:38;18.13;;;15.00;;
6638;SDS011;3355;52.882;8.430;2022-09-13T04:17:05;16.73;;;14.93;;
6638;SDS011;3355;52.882;8.430;2022-09-13T04:19:32;16.27;;;12.97;;
6638;SDS011;3355;52.882;8.430;2022-09-13T04:22:02;19.13;;;15.07;;
6638;SDS011;3355;52.882;8.430;2022-09-13T04:24:29;15.40;;;13.87;;
6638;SDS011;3355;52.882;8.430;2022-09-13T04:26:56;16.87;;;14.23;;
6638;SDS011;3355;52.882;8.430;2022-09-13T04:29:23;17.57;;;14.70;;
6638;SDS011;3355;52.882;8.430;2022-09-13T04:31:51;20.47;;;15.00;;
6638;SDS011;3355;52.882;8.430;2022-09-13T04:34:18;21.13;;;14.80;;
6638;SDS011;3355;52.882;8.430;2022-09-13T04:36:46;17.90;;;14.87;;
6638;SDS011;3355;52.882;8.430;2022-09-13T04:39:14;21.03;;;15.63;;
6638;SDS011;3355;52.882;8.430;2022-09-13T04:41:41;16.03;;;13.30;;
6638;SDS011;3355;52.882;8.430;2022-09-13T04:44:08;19.87;;;14.27;;
6638;SDS011;3355;52.882;8.430;2022-09-13T04:46:35;16.03;;;13.67;;
6638;SDS011;3355;52.882;8.430;2022-09-13T04:49:02;17.13;;;14.30;;
6638;SDS011;3355;52.882;8.430;2022-09-13T04:51:28;17.53;;;14.33;;
6638;SDS011;3355;52.882;8.430;2022-09-13T04:53:55;19.87;;;15.63;;
6638;SDS011;3355;52.882;8.430;2022-09-13T04:56:23;19.40;;;13.73;;
6638;SDS011;3355;52.882;8.430;2022-09-13T04:58:51;17.27;;;14.00;;
6638;SDS011;3355;52.882;8.430;2022-09-13T05:01:19;18.40;;;13.87;;
6638;SDS011;3355;52.882;8.430;2022-09-13T05:03:46;16.73;;;14.93;;
6638;SDS011;3355;52.882;8.430;2022-09-13T05:06:13;17.60;;;13.90;;
6638;SDS011;3355;52.882;8.430;2022-09-13T05:08:42;18.47;;;13.63;;
6638;SDS011;3355;52.882;8.430;2022-09-13T05:11:09;17.07;;;14.07;;
6638;SDS011;3355;52.882;8.430;2022-09-13T05:13:37;20.03;;;15.33;;
6638;SDS011;3355;52.882;8.430;2022-09-13T05:16:04;17.33;;;15.23;;
6638;SDS011;3355;52.882;8.430;2022-09-13T05:18:33;16.50;;;14.80;;
6638;SDS011;3355;52.882;8.430;2022-09-13T05:21:00;16.10;;;13.93;;
6638;SDS011;3355;52.882;8.430;2022-09-13T05:23:28;17.67;;;15.60;;
6638;SDS011;3355;52.882;8.430;2022-09-13T05:25:57;18.47;;;15.47;;
6638;SDS011;3355;52.882;8.430;2022-09-13T05:28:25;17.67;;;14.93;;
6638;SDS011;3355;52.882;8.430;2022-09-13T05:30:55;17.40;;;13.70;;
6638;SDS011;3355;52.882;8.430;2022-09-13T05:33:22;16.80;;;14.17;;
6638;SDS011;3355;52.882;8.430;2022-09-13T05:35:49;17.97;;;15.40;;
6638;SDS011;3355;52.882;8.430;2022-09-13T05:38:15;17.40;;;13.50;;
6638;SDS011;3355;52.882;8.430;2022-09-13T05:40:42;21.83;;;16.50;;
6638;SDS011;3355;52.882;8.430;2022-09-13T05:43:09;17.17;;;14.80;;
6638;SDS011;3355;52.882;8.430;2022-09-13T05:45:36;19.30;;;15.73;;
6638;SDS011;3355;52.882;8.430;2022-09-13T05:48:04;17.97;;;14.77;;
6638;SDS011;3355;52.882;8.430;2022-09-13T05:50:30;17.00;;;15.10;;
6638;SDS011;3355;52.882;8.430;2022-09-13T05:52:57;16.53;;;14.30;;
6638;SDS011;3355;52.882;8.430;2022-09-13T05:55:23;18.13;;;15.33;;
6638;SDS011;3355;52.882;8.430;2022-09-13T05:57:51;16.00;;;13.20;;
6638;SDS011;3355;52.882;8.430;2022-09-13T06:00:18;19.50;;;14.07;;
6638;SDS011;3355;52.882;8.430;2022-09-13T06:02:45;15.37;;;13.80;;
6638;SDS011;3355;52.882;8.430;2022-09-13T06:05:13;17.07;;;14.50;;
6638;SDS011;3355;52.882;8.430;2022-09-13T06:07:39;18.53;;;14.50;;
6638;SDS011;3355;52.882;8.430;2022-09-13T06:10:06;17.07;;;13.80;;
6638;SDS011;3355;52.882;8.430;2022-09-13T06:12:33;18.03;;;12.10;;
6638;SDS011;3355;52.882;8.430;2022-09-13T06:15:00;16.80;;;12.50;;
6638;SDS011;3355;52.882;8.430;2022-09-13T06:17:27;16.10;;;13.17;;
6638;SDS011;3355;52.882;8.430;2022-09-13T06:19:53;17.93;;;14.47;;
6638;SDS011;3355;52.882;8.430;2022-09-13T06:22:22;20.00;;;13.97;;
6638;SDS011;3355;52.882;8.430;2022-09-13T06:24:48;18.33;;;12.33;;
6638;SDS011;3355;52.882;8.430;2022-09-13T06:27:15;16.07;;;13.17;;
6638;SDS011;3355;52.882;8.430;2022-09-13T06:29:42;15.60;;;14.00;;
6638;SDS011;3355;52.882;8.430;2022-09-13T06:32:08;13.53;;;12.03;;
6638;SDS011;3355;52.882;8.430;2022-09-13T06:34:35;18.13;;;13.33;;
6638;SDS011;3355;52.882;8.430;2022-09-13T06:37:01;15.10;;;12.97;;
6638;SDS011;3355;52.882;8.430;2022-09-13T06:39:29;21.33;;;13.83;;
6638;SDS011;3355;52.882;8.430;2022-09-13T06:41:58;16.93;;;14.43;;
6638;SDS011;3355;52.882;8.430;2022-09-13T06:44:24;17.93;;;14.27;;
6638;SDS011;3355;52.882;8.430;2022-09-13T06:46:51;15.33;;;12.20;;
6638;SDS011;3355;52.882;8.430;2022-09-13T06:49:18;21.13;;;14.60;;
6638;SDS011;3355;52.882;8.430;2022-09-13T06:51:44;13.63;;;12.20;;
6638;SDS011;3355;52.882;8.430;2022-09-13T06:54:11;16.17;;;13.37;;
6638;SDS011;3355;52.882;8.430;2022-09-13T06:56:42;15.50;;;13.53;;
6638;SDS011;3355;52.882;8.430;2022-09-13T06:59:08;17.10;;;14.00;;
6638;SDS011;3355;52.882;8.430;2022-09-13T07:01:35;15.77;;;13.20;;
6638;SDS011;3355;52.882;8.430;2022-09-13T07:04:03;15.70;;;14.00;;
6638;SDS011;3355;52.882;8.430;2022-09-13T07:06:31;18.47;;;13.93;;
6638;SDS011;3355;52.882;8.430;2022-09-13T07:09:00;22.83;;;14.60;;
6638;SDS011;3355;52.882;8.430;2022-09-13T07:11:32;17.13;;;15.00;;
6638;SDS011;3355;52.882;8.430;2022-09-13T07:14:01;17.60;;;14.17;;
6638;SDS011;3355;52.882;8.430;2022-09-13T07:16:28;15.70;;;13.40;;
6638;SDS011;3355;52.882;8.430;2022-09-13T07:18:59;16.43;;;14.43;;
6638;SDS011;3355;52.882;8.430;2022-09-13T07:21:27;17.47;;;15.20;;
6638;SDS011;3355;52.882;8.430;2022-09-13T07:23:54;19.40;;;14.60;;
6638;SDS011;3355;52.882;8.430;2022-09-13T07:26:21;18.57;;;15.83;;
6638;SDS011;3355;52.882;8.430;2022-09-13T07:28:49;21.33;;;14.50;;
6638;SDS011;3355;52.882;8.430;2022-09-13T07:31:19;23.03;;;15.70;;
6638;SDS011;3355;52.882;8.430;2022-09-13T07:33:47;19.00;;;14.80;;
6638;SDS011;3355;52.882;8.430;2022-09-13T07:36:18;20.27;;;16.10;;
6638;SDS011;3355;52.882;8.430;2022-09-13T07:38:45;17.90;;;15.23;;
6638;SDS011;3355;52.882;8.430;2022-09-13T07:41:12;20.53;;;16.20;;
6638;SDS011;3355;52.882;8.430;2022-09-13T07:43:40;21.60;;;15.27;;
6638;SDS011;3355;52.882;8.430;2022-09-13T07:46:08;17.37;;;14.53;;
6638;SDS011;3355;52.882;8.430;2022-09-13T07:48:37;21.37;;;15.90;;
6638;SDS011;3355;52.882;8.430;2022-09-13T07:51:05;17.20;;;13.67;;
6638;SDS011;3355;52.882;8.430;2022-09-13T07:53:34;22.57;;;15.60;;
6638;SDS011;3355;52.882;8.430;2022-09-13T07:56:02;15.67;;;13.00;;
6638;SDS011;3355;52.882;8.430;2022-09-13T07:58:29;15.00;;;13.27;;
6638;SDS011;3355;52.882;8.430;2022-09-13T08:00:57;13.03;;;11.63;;
6638;SDS011;3355;52.882;8.430;2022-09-13T08:03:27;17.33;;;13.07;;
6638;SDS011;3355;52.882;8.430;2022-09-13T08:05:55;14.87;;;12.20;;
6638;SDS011;3355;52.882;8.430;2022-09-13T08:08:22;13.80;;;11.10;;
6638;SDS011;3355;52.882;8.430;2022-09-13T08:10:48;13.70;;;11.23;;
6638;SDS011;3355;52.882;8.430;2022-09-13T08:13:15;13.90;;;10.53;;
6638;SDS011;3355;52.882;8.430;2022-09-13T08:15:42;13.30;;;10.10;;
6638;SDS011;3355;52.882;8.430;2022-09-13T08:18:09;10.77;;;9.43;;
6638;SDS011;3355;52.882;8.430;2022-09-13T08:20:35;10.80;;;9.67;;
6638;SDS011;3355;52.882;8.430;2022-09-13T08:23:04;10.83;;;9.30;;
6638;SDS011;3355;52.882;8.430;2022-09-13T08:25:32;11.97;;;9.90;;
6638;SDS011;3355;52.882;8.430;2022-09-13T08:27:59;11.90;;;10.00;;
6638;SDS011;3355;52.882;8.430;2022-09-13T08:30:26;11.93;;;9.50;;
6638;SDS011;3355;52.882;8.430;2022-09-13T08:32:57;11.03;;;8.23;;
6638;SDS011;3355;52.882;8.430;2022-09-13T08:35:24;11.83;;;7.30;;
6638;SDS011;3355;52.882;8.430;2022-09-13T08:37:50;10.80;;;8.70;;
6638;SDS011;3355;52.882;8.430;2022-09-13T08:40:18;9.60;;;6.73;;
6638;SDS011;3355;52.882;8.430;2022-09-13T08:42:47;9.43;;;6.03;;
6638;SDS011;3355;52.882;8.430;2022-09-13T08:45:16;7.67;;;6.57;;
6638;SDS011;3355;52.882;8.430;2022-09-13T08:47:45;13.60;;;7.57;;
6638;SDS011;3355;52.882;8.430;2022-09-13T08:50:14;7.90;;;6.50;;
6638;SDS011;3355;52.882;8.430;2022-09-13T08:52:47;9.00;;;6.10;;
6638;SDS011;3355;52.882;8.430;2022-09-13T08:55:24;6.50;;;5.47;;
6638;SDS011;3355;52.882;8.430;2022-09-13T08:57:54;9.03;;;6.13;;
6638;SDS011;3355;52.882;8.430;2022-09-13T09:00:28;7.10;;;4.83;;
6638;SDS011;3355;52.882;8.430;2022-09-13T09:03:00;4.97;;;3.90;;
6638;SDS011;3355;52.882;8.430;2022-09-13T09:05:35;4.30;;;2.97;;
6638;SDS011;3355;52.882;8.430;2022-09-13T09:08:09;5.70;;;3.30;;
6638;SDS011;3355;52.882;8.430;2022-09-13T09:10:40;6.67;;;3.20;;
6638;SDS011;3355;52.882;8.430;2022-09-13T09:13:08;7.30;;;3.27;;
6638;SDS011;3355;52.882;8.430;2022-09-13T09:15:41;4.57;;;1.67;;
6638;SDS011;3355;52.882;8.430;2022-09-13T09:18:09;3.30;;;1.73;;
6638;SDS011;3355;52.882;8.430;2022-09-13T09:20:40;4.30;;;1.40;;
6638;SDS011;3355;52.882;8.430;2022-09-13T09:23:12;4.10;;;1.43;;
6638;SDS011;3355;52.882;8.430;2022-09-13T09:25:42;5.30;;;2.10;;
6638;SDS011;3355;52.882;8.430;2022-09-13T09:28:10;4.00;;;1.47;;
6638;SDS011;3355;52.882;8.430;2022-09-13T09:30:41;5.57;;;2.30;;
6638;SDS011;3355;52.882;8.430;2022-09-13T09:33:20;2.50;;;1.37;;
6638;SDS011;3355;52.882;8.430;2022-09-13T09:35:55;5.93;;;2.27;;
6638;SDS011;3355;52.882;8.430;2022-09-13T09:38:34;4.73;;;2.27;;
6638;SDS011;3355;52.882;8.430;2022-09-13T09:41:05;3.23;;;1.70;;
6638;SDS011;3355;52.882;8.430;2022-09-13T09:43:38;4.03;;;1.60;;
6638;SDS011;3355;52.882;8.430;2022-09-13T09:46:09;5.00;;;2.27;;
6638;SDS011;3355;52.882;8.430;2022-09-13T09:48:40;2.77;;;1.57;;
6638;SDS011;3355;52.882;8.430;2022-09-13T09:51:10;4.43;;;1.70;;
6638;SDS011;3355;52.882;8.430;2022-09-13T09:53:38;7.67;;;2.63;;
6638;SDS011;3355;52.882;8.430;2022-09-13T09:56:14;3.87;;;1.50;;
6638;SDS011;3355;52.882;8.430;2022-09-13T09:58:46;2.47;;;1.17;;
6638;SDS011;3355;52.882;8.430;2022-09-13T10:01:14;6.07;;;1.70;;
6638;SDS011;3355;52.882;8.430;2022-09-13T10:03:47;6.17;;;2.20;;
6638;SDS011;3355;52.882;8.430;2022-09-13T10:06:17;8.47;;;2.07;;
6638;SDS011;3355;52.882;8.430;2022-09-13T10:08:46;4.13;;;2.10;;
6638;SDS011;3355;52.882;8.430;2022-09-13T10:11:20;3.53;;;1.77;;
6638;SDS011;3355;52.882;8.430;2022-09-13T10:13:57;3.80;;;1.90;;
6638;SDS011;3355;52.882;8.430;2022-09-13T10:16:26;3.47;;;2.23;;
6638;SDS011;3355;52.882;8.430;2022-09-13T10:18:55;3.33;;;2.23;;
6638;SDS011;3355;52.882;8.430;2022-09-13T10:21:42;3.27;;;1.50;;
6638;SDS011;3355;52.882;8.430;2022-09-13T10:24:14;4.83;;;2.20;;
6638;SDS011;3355;52.882;8.430;2022-09-13T10:26:44;4.97;;;2.20;;
6638;SDS011;3355;52.882;8.430;2022-09-13T10:29:12;4.40;;;2.17;;
6638;SDS011;3355;52.882;8.430;2022-09-13T10:31:40;2.97;;;1.97;;
6638;SDS011;3355;52.882;8.430;2022-09-13T10:34:10;3.90;;;2.00;;
6638;SDS011;3355;52.882;8.430;2022-09-13T10:36:42;5.93;;;2.60;;
6638;SDS011;3355;52.882;8.430;2022-09-13T10:39:14;2.90;;;2.03;;
6638;SDS011;3355;52.882;8.430;2022-09-13T10:41:47;4.00;;;1.60;;
6638;SDS011;3355;52.882;8.430;2022-09-13T10:44:21;5.50;;;2.33;;
6638;SDS011;3355;52.882;8.430;2022-09-13T10:46:51;5.50;;;1.90;;
6638;SDS011;3355;52.882;8.430;2022-09-13T10:52:00;3.30;;;1.50;;
6638;SDS011;3355;52.882;8.430;2022-09-13T10:54:27;4.93;;;1.90;;
6638;SDS011;3355;52.882;8.430;2022-09-13T10:56:55;2.60;;;1.60;;
6638;SDS011;3355;52.882;8.430;2022-09-13T10:59:22;4.50;;;2.00;;
6638;SDS011;3355;52.882;8.430;2022-09-13T11:01:55;3.00;;;1.43;;
6638;SDS011;3355;52.882;8.430;2022-09-13T11:04:53;4.43;;;1.93;;
6638;SDS011;3355;52.882;8.430;2022-09-13T11:07:39;4.50;;;1.50;;
6638;SDS011;3355;52.882;8.430;2022-09-13T11:10:19;3.60;;;1.60;;
6638;SDS011;3355;52.882;8.430;2022-09-13T11:12:54;5.20;;;1.80;;
6638;SDS011;3355;52.882;8.430;2022-09-13T11:15:28;4.47;;;1.70;;
6638;SDS011;3355;52.882;8.430;2022-09-13T11:18:08;4.53;;;1.47;;
6638;SDS011;3355;52.882;8.430;2022-09-13T11:20:46;2.93;;;1.57;;
6638;SDS011;3355;52.882;8.430;2022-09-13T11:26:10;8.63;;;2.07;;
6638;SDS011;3355;52.882;8.430;2022-09-13T11:28:49;5.87;;;1.60;;
6638;SDS011;3355;52.882;8.430;2022-09-13T11:31:25;3.30;;;1.50;;
6638;SDS011;3355;52.882;8.430;2022-09-13T11:34:01;4.60;;;1.67;;
6638;SDS011;3355;52.882;8.430;2022-09-13T11:36:42;6.93;;;1.50;;
6638;SDS011;3355;52.882;8.430;2022-09-13T11:39:15;6.57;;;2.10;;
6638;SDS011;3355;52.882;8.430;2022-09-13T11:41:49;3.57;;;1.03;;
6638;SDS011;3355;52.882;8.430;2022-09-13T11:44:25;2.30;;;1.00;;
6638;SDS011;3355;52.882;8.430;2022-09-13T11:46:59;3.37;;;1.40;;
6638;SDS011;3355;52.882;8.430;2022-09-13T11:49:33;2.67;;;1.33;;
6638;SDS011;3355;52.882;8.430;2022-09-13T11:52:08;3.43;;;1.30;;
6638;SDS011;3355;52.882;8.430;2022-09-13T11:54:48;4.97;;;1.57;;
6638;SDS011;3355;52.882;8.430;2022-09-13T11:57:22;3.10;;;1.20;;
6638;SDS011;3355;52.882;8.430;2022-09-13T11:59:53;3.10;;;1.40;;
6638;SDS011;3355;52.882;8.430;2022-09-13T12:02:23;4.40;;;1.60;;
6638;SDS011;3355;52.882;8.430;2022-09-13T12:04:54;4.80;;;1.67;;
6638;SDS011;3355;52.882;8.430;2022-09-13T12:07:28;3.10;;;1.40;;
6638;SDS011;3355;52.882;8.430;2022-09-13T12:09:58;4.60;;;1.60;;
6638;SDS011;3355;52.882;8.430;2022-09-13T12:12:30;2.90;;;1.43;;
6638;SDS011;3355;52.882;8.430;2022-09-13T12:15:00;4.10;;;1.70;;
6638;SDS011;3355;52.882;8.430;2022-09-13T12:17:32;3.00;;;1.20;;
6638;SDS011;3355;52.882;8.430;2022-09-13T12:20:03;4.10;;;1.50;;
6638;SDS011;3355;52.882;8.430;2022-09-13T12:22:33;2.20;;;1.00;;
6638;SDS011;3355;52.882;8.430;2022-09-13T12:25:01;2.50;;;0.90;;
6638;SDS011;3355;52.882;8.430;2022-09-13T12:27:30;4.83;;;1.37;;
6638;SDS011;3355;52.882;8.430;2022-09-13T12:30:04;2.67;;;1.27;;
6638;SDS011;3355;52.882;8.430;2022-09-13T12:32:32;3.10;;;1.30;;
6638;SDS011;3355;52.882;8.430;2022-09-13T12:34:59;3.30;;;1.30;;
6638;SDS011;3355;52.882;8.430;2022-09-13T12:37:43;2.73;;;1.00;;
6638;SDS011;3355;52.882;8.430;2022-09-13T12:40:23;3.33;;;1.17;;
6638;SDS011;3355;52.882;8.430;2022-09-13T12:43:06;3.23;;;1.10;;
6638;SDS011;3355;52.882;8.430;2022-09-13T12:45:45;2.80;;;1.20;;
6638;SDS011;3355;52.882;8.430;2022-09-13T12:48:25;2.33;;;1.00;;
6638;SDS011;3355;52.882;8.430;2022-09-13T12:50:58;2.80;;;1.23;;
6638;SDS011;3355;52.882;8.430;2022-09-13T12:56:26;3.10;;;1.20;;
6638;SDS011;3355;52.882;8.430;2022-09-13T12:59:02;3.27;;;1.30;;
6638;SDS011;3355;52.882;8.430;2022-09-13T13:01:41;3.13;;;1.50;;
6638;SDS011;3355;52.882;8.430;2022-09-13T13:04:12;3.30;;;1.43;;
6638;SDS011;3355;52.882;8.430;2022-09-13T13:06:46;2.93;;;0.90;;
6638;SDS011;3355;52.882;8.430;2022-09-13T13:09:21;4.10;;;1.40;;
6638;SDS011;3355;52.882;8.430;2022-09-13T13:11:49;3.93;;;1.70;;
6638;SDS011;3355;52.882;8.430;2022-09-13T13:14:26;3.73;;;1.27;;
6638;SDS011;3355;52.882;8.430;2022-09-13T13:19:56;2.73;;;1.20;;
6638;SDS011;3355;52.882;8.430;2022-09-13T13:36:55;3.43;;;1.50;;
6638;SDS011;3355;52.882;8.430;2022-09-13T13:39:32;3.60;;;1.97;;
6638;SDS011;3355;52.882;8.430;2022-09-13T13:42:00;3.20;;;1.40;;
6638;SDS011;3355;52.882;8.430;2022-09-13T13:50:26;5.27;;;1.20;;
6638;SDS011;3355;52.882;8.430;2022-09-13T13:52:55;3.20;;;1.40;;
6638;SDS011;3355;52.882;8.430;2022-09-13T13:58:26;2.67;;;0.93;;
6638;SDS011;3355;52.882;8.430;2022-09-13T14:00:57;4.87;;;1.23;;
6638;SDS011;3355;52.882;8.430;2022-09-13T14:03:27;2.43;;;1.13;;
6638;SDS011;3355;52.882;8.430;2022-09-13T14:06:01;2.90;;;1.30;;
6638;SDS011;3355;52.882;8.430;2022-09-13T14:08:44;3.77;;;1.13;;
6638;SDS011;3355;52.882;8.430;2022-09-13T14:11:22;2.23;;;1.00;;
6638;SDS011;3355;52.882;8.430;2022-09-13T14:13:59;4.00;;;1.40;;
6638;SDS011;3355;52.882;8.430;2022-09-13T14:16:36;3.33;;;1.40;;
6638;SDS011;3355;52.882;8.430;2022-09-13T14:19:20;3.93;;;1.30;;
6638;SDS011;3355;52.882;8.430;2022-09-13T14:24:40;3.90;;;1.20;;
6638;SDS011;3355;52.882;8.430;2022-09-13T14:27:12;3.80;;;1.30;;
6638;SDS011;3355;52.882;8.430;2022-09-13T14:29:43;4.73;;;1.20;;
6638;SDS011;3355;52.882;8.430;2022-09-13T14:32:11;5.47;;;1.37;;
6638;SDS011;3355;52.882;8.430;2022-09-13T14:34:49;3.93;;;1.63;;
6638;SDS011;3355;52.882;8.430;2022-09-13T14:37:17;2.53;;;1.20;;
6638;SDS011;3355;52.882;8.430;2022-09-13T14:39:55;4.50;;;1.30;;
6638;SDS011;3355;52.882;8.430;2022-09-13T14:42:23;5.20;;;1.30;;
6638;SDS011;3355;52.882;8.430;2022-09-13T14:44:50;3.80;;;1.20;;
6638;SDS011;3355;52.882;8.430;2022-09-13T14:47:18;4.23;;;1.10;;
6638;SDS011;3355;52.882;8.430;2022-09-13T14:49:48;2.90;;;1.23;;
6638;SDS011;3355;52.882;8.430;2022-09-13T14:52:19;5.03;;;1.93;;
6638;SDS011;3355;52.882;8.430;2022-09-13T14:54:50;3.53;;;1.40;;
6638;SDS011;3355;52.882;8.430;2022-09-13T14:57:22;4.33;;;2.23;;
6638;SDS011;3355;52.882;8.430;2022-09-13T14:59:53;2.50;;;1.30;;
6638;SDS011;3355;52.882;8.430;2022-09-13T15:02:22;5.37;;;1.30;;
6638;SDS011;3355;52.882;8.430;2022-09-13T15:04:51;2.37;;;1.03;;
6638;SDS011;3355;52.882;8.430;2022-09-13T15:07:21;3.80;;;1.30;;
6638;SDS011;3355;52.882;8.430;2022-09-13T15:09:49;3.03;;;1.33;;
6638;SDS011;3355;52.882;8.430;2022-09-13T15:12:22;2.50;;;1.20;;
6638;SDS011;3355;52.882;8.430;2022-09-13T15:17:50;4.87;;;1.60;;
6638;SDS011;3355;52.882;8.430;2022-09-13T15:20:21;3.83;;;1.33;;
6638;SDS011;3355;52.882;8.430;2022-09-13T15:22:48;6.40;;;1.60;;
6638;SDS011;3355;52.882;8.430;2022-09-13T15:25:18;5.20;;;1.60;;
6638;SDS011;3355;52.882;8.430;2022-09-13T15:27:49;3.00;;;1.30;;
6638;SDS011;3355;52.882;8.430;2022-09-13T15:30:19;5.40;;;1.83;;
6638;SDS011;3355;52.882;8.430;2022-09-13T15:32:48;3.17;;;1.30;;
6638;SDS011;3355;52.882;8.430;2022-09-13T15:35:15;4.27;;;1.47;;
6638;SDS011;3355;52.882;8.430;2022-09-13T15:37:43;2.70;;;1.50;;
6638;SDS011;3355;52.882;8.430;2022-09-13T15:40:14;3.13;;;1.13;;
6638;SDS011;3355;52.882;8.430;2022-09-13T15:42:44;5.07;;;1.20;;
6638;SDS011;3355;52.882;8.430;2022-09-13T15:45:14;3.67;;;1.30;;
6638;SDS011;3355;52.882;8.430;2022-09-13T15:47:43;4.03;;;1.30;;
6638;SDS011;3355;52.882;8.430;2022-09-13T15:50:13;2.70;;;1.10;;
6638;SDS011;3355;52.882;8.430;2022-09-13T15:52:44;3.37;;;1.60;;
6638;SDS011;3355;52.882;8.430;2022-09-13T15:55:11;2.00;;;0.83;;
6638;SDS011;3355;52.882;8.430;2022-09-13T15:57:38;10.93;;;1.83;;
6638;SDS011;3355;52.882;8.430;2022-09-13T16:00:05;4.33;;;1.23;;
6638;SDS011;3355;52.882;8.430;2022-09-13T16:02:36;2.40;;;1.00;;
6638;SDS011;3355;52.882;8.430;2022-09-13T16:05:03;3.43;;;1.50;;
6638;SDS011;3355;52.882;8.430;2022-09-13T16:07:31;5.60;;;1.70;;
6638;SDS011;3355;52.882;8.430;2022-09-13T16:09:57;4.40;;;1.43;;
6638;SDS011;3355;52.882;8.430;2022-09-13T16:12:25;7.40;;;1.30;;